createdAt,value
2018-09-18T00:00:15.212Z,5.83
2018-09-18T00:02:43.838Z,5.37
2018-09-18T00:05:11.394Z,6.10
2018-09-18T00:07:39.287Z,5.97
2018-09-18T00:10:07.442Z,6.27
2018-09-18T00:12:37.449Z,6.00
2018-09-18T00:15:07.063Z,6.03
2018-09-18T00:17:34.833Z,6.07
2018-09-18T00:20:02.347Z,5.93
2018-09-18T00:22:30.004Z,6.10
2018-09-18T00:24:57.709Z,5.87
2018-09-18T00:27:25.584Z,6.03
2018-09-18T00:29:53.258Z,6.13
2018-09-18T00:32:20.809Z,6.33
2018-09-18T00:34:49.736Z,5.80
2018-09-18T00:37:17.241Z,5.60
2018-09-18T00:39:44.923Z,5.90
2018-09-18T00:42:12.365Z,6.73
2018-09-18T00:44:39.867Z,6.13
2018-09-18T00:47:07.461Z,6.30
2018-09-18T00:49:35.035Z,6.10
2018-09-18T00:52:02.644Z,7.47
2018-09-18T00:54:30.074Z,6.40
2018-09-18T00:56:57.566Z,6.13
2018-09-18T00:59:25.125Z,6.70
2018-09-18T01:01:52.648Z,7.07
2018-09-18T01:04:20.322Z,5.90
2018-09-18T01:06:47.824Z,6.63
2018-09-18T01:09:15.318Z,6.80
2018-09-18T01:11:43.546Z,7.20
2018-09-18T01:14:11.135Z,6.43
2018-09-18T01:16:38.636Z,6.30
2018-09-18T01:19:06.126Z,7.20
2018-09-18T01:21:33.829Z,6.03
2018-09-18T01:24:01.370Z,6.20
2018-09-18T01:26:28.874Z,7.00
2018-09-18T01:28:56.319Z,6.90
2018-09-18T01:31:23.833Z,6.70
2018-09-18T01:33:51.386Z,6.60
2018-09-18T01:36:19.048Z,6.17
2018-09-18T01:38:46.593Z,6.00
2018-09-18T01:41:14.206Z,6.33
2018-09-18T01:43:41.718Z,6.60
2018-09-18T01:46:09.270Z,6.80
2018-09-18T01:48:36.912Z,6.00
2018-09-18T01:51:04.536Z,7.00
2018-09-18T01:53:32.656Z,6.50
2018-09-18T01:56:00.154Z,7.10
2018-09-18T01:58:27.660Z,5.90
2018-09-18T02:00:55.218Z,6.80
2018-09-18T02:03:22.715Z,7.00
2018-09-18T02:05:50.237Z,6.80
2018-09-18T02:08:17.784Z,6.73
2018-09-18T02:10:45.387Z,6.30
2018-09-18T02:13:12.973Z,6.17
2018-09-18T02:15:40.552Z,7.50
2018-09-18T02:18:08.086Z,6.77
2018-09-18T02:20:35.633Z,6.53
2018-09-18T02:23:03.373Z,7.10
2018-09-18T02:25:30.855Z,6.60
2018-09-18T02:27:58.412Z,6.83
2018-09-18T02:30:25.999Z,6.77
2018-09-18T02:32:53.487Z,6.70
2018-09-18T02:35:20.981Z,6.80
2018-09-18T02:37:48.570Z,7.10
2018-09-18T02:40:16.103Z,6.53
2018-09-18T02:42:43.677Z,7.00
2018-09-18T02:45:11.329Z,7.43
2018-09-18T02:47:38.869Z,7.60
2018-09-18T02:50:06.480Z,7.80
2018-09-18T02:52:34.050Z,7.63
2018-09-18T02:55:01.593Z,6.70
2018-09-18T02:57:29.157Z,6.83
2018-09-18T02:59:56.732Z,7.93
2018-09-18T03:02:24.238Z,7.30
2018-09-18T03:04:51.767Z,7.10
2018-09-18T03:07:22.435Z,8.23
2018-09-18T03:09:50.073Z,7.30
2018-09-18T03:12:17.661Z,7.53
2018-09-18T03:14:45.186Z,6.83
2018-09-18T03:17:12.704Z,7.00
2018-09-18T03:19:40.242Z,7.33
2018-09-18T03:22:07.780Z,7.10
2018-09-18T03:24:36.033Z,6.63
2018-09-18T03:27:03.533Z,7.23
2018-09-18T03:29:31.103Z,6.93
2018-09-18T03:31:59.456Z,6.73
2018-09-18T03:34:27.014Z,6.77
2018-09-18T03:36:54.480Z,7.60
2018-09-18T03:39:22.037Z,7.37
2018-09-18T03:41:49.597Z,8.60
2018-09-18T03:44:17.151Z,7.27
2018-09-18T03:46:45.524Z,7.00
2018-09-18T03:49:13.045Z,7.60
2018-09-18T03:51:40.557Z,7.37
2018-09-18T03:54:08.123Z,7.10
2018-09-18T03:56:35.673Z,6.83
2018-09-18T03:59:03.293Z,7.80
2018-09-18T04:01:30.780Z,7.57
2018-09-18T04:03:58.259Z,7.60
2018-09-18T04:06:25.811Z,6.53
2018-09-18T04:08:53.509Z,7.70
2018-09-18T04:11:21.090Z,7.73
2018-09-18T04:13:48.596Z,7.40
2018-09-18T04:16:16.181Z,7.17
2018-09-18T04:18:43.735Z,7.90
2018-09-18T04:21:11.265Z,7.97
2018-09-18T04:23:38.903Z,7.60
2018-09-18T04:26:06.426Z,7.40
2018-09-18T04:28:35.001Z,7.23
2018-09-18T04:31:02.643Z,6.67
2018-09-18T04:33:31.270Z,7.60
2018-09-18T04:35:58.759Z,9.27
2018-09-18T04:38:26.333Z,9.07
2018-09-18T04:40:53.901Z,7.13
2018-09-18T04:43:21.480Z,7.90
2018-09-18T04:45:49.239Z,7.97
2018-09-18T04:48:18.092Z,8.10
2018-09-18T04:50:46.884Z,7.60
2018-09-18T04:53:14.333Z,7.80
2018-09-18T04:55:41.837Z,8.27
2018-09-18T04:58:12.839Z,7.67
2018-09-18T05:00:41.361Z,7.63
2018-09-18T05:03:08.956Z,7.33
2018-09-18T05:05:39.659Z,8.87
2018-09-18T05:08:07.197Z,7.07
2018-09-18T05:10:35.654Z,7.60
2018-09-18T05:13:05.236Z,7.60
2018-09-18T05:15:33.767Z,8.30
2018-09-18T05:18:05.026Z,8.20
2018-09-18T05:20:32.544Z,7.53
2018-09-18T05:23:00.074Z,8.17
2018-09-18T05:25:27.696Z,8.57
2018-09-18T05:27:55.964Z,7.33
2018-09-18T05:30:23.638Z,7.83
2018-09-18T05:32:51.307Z,7.57
2018-09-18T05:35:19.040Z,8.30
2018-09-18T05:37:46.702Z,7.90
2018-09-18T05:40:14.392Z,8.40
2018-09-18T05:42:41.980Z,7.43
2018-09-18T05:45:09.677Z,7.97
2018-09-18T05:47:37.275Z,8.80
2018-09-18T05:50:05.968Z,7.47
2018-09-18T05:52:33.605Z,6.90
2018-09-18T05:55:01.285Z,7.40
2018-09-18T05:57:29.172Z,7.80
2018-09-18T05:59:56.644Z,7.43
2018-09-18T06:02:24.172Z,7.57
2018-09-18T06:04:51.644Z,8.67
2018-09-18T06:07:19.202Z,8.70
2018-09-18T06:09:46.840Z,8.50
2018-09-18T06:12:14.392Z,8.10
2018-09-18T06:14:41.942Z,8.67
2018-09-18T06:17:09.391Z,8.00
2018-09-18T06:19:36.936Z,7.20
2018-09-18T06:22:04.466Z,7.00
2018-09-18T06:24:32.041Z,7.60
2018-09-18T06:26:59.584Z,6.83
2018-09-18T06:29:27.109Z,7.73
2018-09-18T06:31:55.033Z,6.97
2018-09-18T06:34:22.496Z,6.57
2018-09-18T06:36:49.998Z,6.00
2018-09-18T06:39:17.575Z,5.20
2018-09-18T06:41:45.065Z,5.10
2018-09-18T06:44:12.638Z,5.50
2018-09-18T06:46:40.079Z,4.80
2018-09-18T06:49:07.616Z,5.63
2018-09-18T06:51:35.138Z,5.00
2018-09-18T06:54:02.620Z,5.47
2018-09-18T06:56:30.224Z,5.10
2018-09-18T06:58:57.698Z,4.50
2018-09-18T07:01:25.184Z,4.70
2018-09-18T07:03:52.752Z,4.63
2018-09-18T07:06:20.319Z,5.27
2018-09-18T07:08:47.915Z,5.00
2018-09-18T07:11:15.425Z,4.97
2018-09-18T07:13:42.975Z,4.60
2018-09-18T07:16:10.556Z,4.70
2018-09-18T07:18:38.120Z,4.50
2018-09-18T07:21:06.484Z,4.37
2018-09-18T07:23:34.775Z,4.77
2018-09-18T07:26:02.231Z,4.47
2018-09-18T07:28:30.127Z,4.00
2018-09-18T07:30:58.125Z,4.50
2018-09-18T07:33:25.561Z,4.40
2018-09-18T07:35:53.087Z,4.30
2018-09-18T07:38:20.643Z,4.30
2018-09-18T07:40:48.197Z,3.87
2018-09-18T07:43:15.675Z,4.30
2018-09-18T07:45:43.181Z,4.00
2018-09-18T07:48:10.758Z,3.67
2018-09-18T07:50:38.263Z,3.63
2018-09-18T07:53:05.952Z,4.40
2018-09-18T07:55:33.795Z,3.80
2018-09-18T07:58:01.299Z,4.23
2018-09-18T08:00:28.896Z,3.60
2018-09-18T08:02:56.459Z,3.67
2018-09-18T08:05:24.008Z,3.53
2018-09-18T08:07:51.549Z,3.80
2018-09-18T08:10:19.070Z,4.27
2018-09-18T08:12:49.042Z,4.40
2018-09-18T08:15:17.675Z,3.60
2018-09-18T08:17:45.114Z,3.77
2018-09-18T08:20:12.708Z,3.53
2018-09-18T08:22:40.178Z,3.30
2018-09-18T08:25:07.682Z,4.03
2018-09-18T08:27:35.160Z,3.67
2018-09-18T08:30:02.642Z,3.30
2018-09-18T08:32:30.192Z,3.50
2018-09-18T08:34:57.696Z,3.13
2018-09-18T08:37:25.186Z,3.90
2018-09-18T08:39:52.843Z,3.50
2018-09-18T08:42:20.270Z,3.70
2018-09-18T08:44:47.725Z,3.70
2018-09-18T08:47:15.182Z,3.73
2018-09-18T08:49:42.657Z,3.80
2018-09-18T08:52:10.359Z,4.10
2018-09-18T08:54:37.716Z,3.20
2018-09-18T08:57:05.561Z,3.43
2018-09-18T08:59:32.997Z,3.40
2018-09-18T09:02:00.473Z,3.20
2018-09-18T09:04:27.978Z,3.47
2018-09-18T09:06:57.119Z,3.87
2018-09-18T09:09:24.565Z,3.17
2018-09-18T09:11:52.119Z,3.40
2018-09-18T09:14:19.567Z,3.40
2018-09-18T09:16:47.007Z,3.57
2018-09-18T09:19:14.709Z,3.10
2018-09-18T09:21:42.134Z,3.20
2018-09-18T09:24:09.631Z,3.40
2018-09-18T09:26:37.048Z,3.67
2018-09-18T09:29:04.561Z,3.40
2018-09-18T09:31:32.322Z,3.80
2018-09-18T09:33:59.801Z,3.70
2018-09-18T09:36:27.249Z,3.37
2018-09-18T09:38:54.802Z,3.87
2018-09-18T09:41:22.158Z,3.50
2018-09-18T09:43:49.642Z,3.23
2018-09-18T09:46:17.079Z,3.27
2018-09-18T09:48:44.521Z,3.10
2018-09-18T09:51:12.007Z,3.90
2018-09-18T09:53:39.467Z,3.10
2018-09-18T09:56:07.045Z,3.33
2018-09-18T09:58:34.481Z,3.47
2018-09-18T10:01:07.431Z,3.63
2018-09-18T10:03:34.865Z,3.10
2018-09-18T10:06:02.313Z,3.80
2018-09-18T10:08:29.911Z,3.80
2018-09-18T10:10:57.501Z,3.80
2018-09-18T10:13:24.823Z,3.03
2018-09-18T10:15:52.283Z,3.30
2018-09-18T10:18:19.847Z,3.30
2018-09-18T10:20:47.446Z,3.20
2018-09-18T10:23:14.913Z,3.40
2018-09-18T10:25:42.389Z,3.47
2018-09-18T10:28:09.853Z,3.30
2018-09-18T10:30:37.327Z,3.27
2018-09-18T10:33:04.805Z,3.37
2018-09-18T10:35:32.356Z,3.23
2018-09-18T10:37:59.979Z,4.00
2018-09-18T10:40:27.525Z,3.57
2018-09-18T10:42:55.104Z,3.37
2018-09-18T10:45:22.620Z,3.30
2018-09-18T10:47:50.188Z,3.13
2018-09-18T10:50:17.634Z,3.50
2018-09-18T10:52:45.116Z,2.83
2018-09-18T10:55:13.573Z,3.90
2018-09-18T10:57:41.127Z,3.10
2018-09-18T11:00:09.785Z,3.70
2018-09-18T11:02:37.281Z,3.57
2018-09-18T11:05:05.050Z,3.17
2018-09-18T11:07:32.644Z,3.03
2018-09-18T11:10:00.243Z,3.27
2018-09-18T11:12:27.680Z,3.63
2018-09-18T11:14:55.224Z,2.90
2018-09-18T11:17:22.645Z,2.90
2018-09-18T11:19:50.103Z,4.40
2018-09-18T11:22:17.792Z,3.30
2018-09-18T11:24:45.276Z,3.20
2018-09-18T11:27:12.743Z,3.73
2018-09-18T11:29:40.140Z,3.20
2018-09-18T11:32:07.539Z,3.07
2018-09-18T11:34:35.555Z,3.10
2018-09-18T11:37:03.032Z,3.60
2018-09-18T11:39:31.410Z,3.53
2018-09-18T11:41:58.786Z,3.70
2018-09-18T11:44:26.158Z,3.30
2018-09-18T11:46:53.527Z,3.67
2018-09-18T11:49:21.036Z,3.63
2018-09-18T11:51:48.556Z,3.37
2018-09-18T11:54:16.046Z,3.70
2018-09-18T11:56:43.602Z,3.60
2018-09-18T11:59:11.180Z,3.20
2018-09-18T12:01:38.795Z,3.50
2018-09-18T12:04:06.271Z,3.13
2018-09-18T12:06:33.703Z,2.90
2018-09-18T12:09:01.304Z,2.93
2018-09-18T12:11:28.695Z,2.80
2018-09-18T12:13:56.160Z,3.50
2018-09-18T12:16:23.736Z,3.07
2018-09-18T12:18:51.200Z,3.93
2018-09-18T12:21:18.676Z,2.77
2018-09-18T12:23:46.115Z,3.20
2018-09-18T12:26:13.519Z,3.20
2018-09-18T12:28:41.087Z,2.90
2018-09-18T12:31:08.606Z,2.63
2018-09-18T12:33:36.091Z,3.20
2018-09-18T12:36:04.078Z,3.00
2018-09-18T12:38:32.458Z,2.80
2018-09-18T12:41:00.035Z,2.20
2018-09-18T12:43:27.513Z,3.00
2018-09-18T12:45:55.011Z,2.93
2018-09-18T12:48:22.494Z,2.50
2018-09-18T12:50:50.022Z,2.57
2018-09-18T12:53:17.487Z,2.20
2018-09-18T12:55:44.936Z,2.53
2018-09-18T12:58:13.767Z,2.53
2018-09-18T13:00:41.260Z,2.47
2018-09-18T13:03:08.836Z,2.60
2018-09-18T13:05:36.351Z,2.83
2018-09-18T13:08:03.880Z,2.77
2018-09-18T13:10:31.412Z,2.80
2018-09-18T13:12:58.909Z,2.43
2018-09-18T13:15:27.081Z,2.30
2018-09-18T13:17:54.656Z,2.27
2018-09-18T13:20:22.109Z,2.60
2018-09-18T13:22:49.587Z,2.67
2018-09-18T13:25:17.090Z,2.50
2018-09-18T13:27:44.583Z,2.87
2018-09-18T13:30:12.065Z,3.13
2018-09-18T13:32:39.561Z,2.90
2018-09-18T13:35:07.049Z,3.07
2018-09-18T13:37:34.898Z,3.20
2018-09-18T13:40:02.383Z,2.87
2018-09-18T13:42:29.926Z,2.60
2018-09-18T13:44:57.422Z,2.97
2018-09-18T13:47:24.869Z,2.77
2018-09-18T13:49:52.522Z,2.63
2018-09-18T13:52:20.056Z,2.37
2018-09-18T13:54:47.504Z,2.90
2018-09-18T13:57:14.971Z,2.50
2018-09-18T13:59:42.459Z,2.93
2018-09-18T14:02:10.033Z,3.00
2018-09-18T14:04:37.555Z,3.07
2018-09-18T14:07:05.193Z,2.97
2018-09-18T14:09:32.751Z,2.67
2018-09-18T14:12:00.205Z,3.57
2018-09-18T14:14:27.839Z,2.53
2018-09-18T14:16:55.296Z,2.73
2018-09-18T14:19:22.757Z,2.67
2018-09-18T14:21:50.284Z,2.50
2018-09-18T14:24:17.761Z,2.43
2018-09-18T14:26:45.276Z,2.90
2018-09-18T14:29:12.755Z,2.70
2018-09-18T14:31:40.262Z,2.40
2018-09-18T14:34:07.708Z,3.63
2018-09-18T14:36:35.224Z,2.60
2018-09-18T14:39:04.904Z,2.40
2018-09-18T14:41:33.350Z,2.97
2018-09-18T14:44:00.922Z,3.03
2018-09-18T14:46:28.380Z,2.80
2018-09-18T14:48:55.837Z,2.57
2018-09-18T14:51:23.438Z,2.57
2018-09-18T14:53:50.831Z,2.77
2018-09-18T14:56:18.351Z,3.20
2018-09-18T14:58:45.947Z,2.90
2018-09-18T15:01:13.481Z,2.50
2018-09-18T15:03:40.932Z,3.10
2018-09-18T15:06:08.393Z,3.00
2018-09-18T15:08:36.028Z,2.80
2018-09-18T15:11:03.594Z,2.97
2018-09-18T15:13:31.121Z,2.70
2018-09-18T15:15:58.568Z,2.43
2018-09-18T15:18:26.046Z,2.50
2018-09-18T15:20:53.659Z,2.83
2018-09-18T15:23:21.089Z,2.77
2018-09-18T15:25:48.587Z,2.93
2018-09-18T15:28:16.040Z,3.00
2018-09-18T15:30:43.461Z,2.63
2018-09-18T15:33:10.993Z,3.57
2018-09-18T15:35:38.447Z,3.53
2018-09-18T15:38:06.077Z,2.73
2018-09-18T15:40:33.612Z,3.07
2018-09-18T15:43:01.160Z,3.17
2018-09-18T15:45:28.632Z,2.77
2018-09-18T15:47:56.138Z,2.90
2018-09-18T15:50:23.622Z,3.40
2018-09-18T15:52:51.148Z,3.17
2018-09-18T15:55:18.662Z,2.80
2018-09-18T15:57:46.239Z,2.70
2018-09-18T16:00:13.720Z,3.00
2018-09-18T16:02:41.154Z,3.10
2018-09-18T16:05:08.643Z,2.70
2018-09-18T16:07:36.097Z,3.23
2018-09-18T16:10:03.720Z,3.10
2018-09-18T16:12:31.213Z,3.10
2018-09-18T16:14:58.722Z,3.43
2018-09-18T16:17:26.170Z,3.00
2018-09-18T16:19:53.639Z,3.47
2018-09-18T16:22:21.113Z,3.27
2018-09-18T16:24:50.701Z,3.00
2018-09-18T16:27:18.773Z,3.60
2018-09-18T16:29:46.268Z,3.60
2018-09-18T16:32:13.761Z,3.13
2018-09-18T16:34:41.242Z,3.30
2018-09-18T16:37:08.844Z,3.80
2018-09-18T16:39:36.381Z,3.37
2018-09-18T16:42:03.881Z,3.20
2018-09-18T16:44:31.349Z,4.00
2018-09-18T16:46:58.899Z,3.20
2018-09-18T16:49:26.344Z,3.50
2018-09-18T16:51:53.860Z,3.20
2018-09-18T16:54:21.345Z,3.00
2018-09-18T16:56:48.868Z,3.53
2018-09-18T16:59:16.374Z,3.80
2018-09-18T17:01:43.848Z,3.57
2018-09-18T17:04:11.335Z,4.43
2018-09-18T17:06:38.903Z,3.93
2018-09-18T17:09:07.785Z,5.53
2018-09-18T17:11:35.336Z,3.57
2018-09-18T17:14:03.384Z,11.40
2018-09-18T17:16:30.925Z,11.10
2018-09-18T17:18:58.367Z,5.17
2018-09-18T17:21:25.836Z,4.63
2018-09-18T17:23:54.072Z,5.07
2018-09-18T17:26:21.537Z,8.57
2018-09-18T17:28:49.137Z,8.40
2018-09-18T17:31:16.496Z,5.23
2018-09-18T17:33:43.974Z,8.80
2018-09-18T17:36:11.686Z,8.83
2018-09-18T17:38:40.841Z,7.47
2018-09-18T17:41:08.796Z,7.17
2018-09-18T17:43:36.380Z,6.37
2018-09-18T17:46:05.119Z,5.53
2018-09-18T17:48:33.495Z,6.63
2018-09-18T17:51:03.309Z,6.43
2018-09-18T17:53:31.110Z,5.87
2018-09-18T17:55:58.632Z,5.93
2018-09-18T17:58:26.076Z,5.30
2018-09-18T18:00:53.626Z,5.63
2018-09-18T18:03:21.127Z,4.97
2018-09-18T18:05:48.668Z,4.40
2018-09-18T18:08:16.247Z,5.27
2018-09-18T18:10:44.801Z,5.00
2018-09-18T18:13:12.368Z,4.27
2018-09-18T18:15:39.850Z,4.10
2018-09-18T18:18:07.271Z,4.87
2018-09-18T18:20:34.887Z,5.23
2018-09-18T18:23:02.240Z,4.30
2018-09-18T18:25:29.741Z,4.30
2018-09-18T18:27:57.220Z,4.70
2018-09-18T18:30:24.673Z,4.67
2018-09-18T18:32:52.160Z,5.30
2018-09-18T18:35:19.635Z,4.90
2018-09-18T18:37:47.102Z,4.97
2018-09-18T18:40:14.631Z,4.80
2018-09-18T18:42:42.141Z,5.07
2018-09-18T18:45:09.750Z,5.50
2018-09-18T18:47:37.302Z,5.13
2018-09-18T18:50:04.719Z,5.67
2018-09-18T18:52:32.261Z,6.10
2018-09-18T18:54:59.741Z,5.90
2018-09-18T18:57:27.224Z,5.00
2018-09-18T18:59:54.691Z,5.70
2018-09-18T19:02:22.350Z,5.17
2018-09-18T19:04:49.866Z,4.70
2018-09-18T19:07:17.391Z,5.20
2018-09-18T19:09:44.983Z,6.37
2018-09-18T19:12:12.522Z,5.17
2018-09-18T19:14:40.007Z,5.50
2018-09-18T19:17:07.597Z,5.20
2018-09-18T19:19:35.109Z,5.40
2018-09-18T19:22:02.605Z,4.67
2018-09-18T19:24:30.107Z,5.23
2018-09-18T19:26:57.580Z,5.07
2018-09-18T19:29:25.186Z,5.50
2018-09-18T19:31:52.747Z,5.33
2018-09-18T19:34:20.315Z,5.10
2018-09-18T19:36:47.822Z,4.50
2018-09-18T19:39:15.431Z,5.63
2018-09-18T19:41:42.897Z,4.70
2018-09-18T19:44:10.330Z,4.60
2018-09-18T19:46:37.812Z,4.57
2018-09-18T19:49:05.350Z,4.27
2018-09-18T19:51:32.861Z,4.30
2018-09-18T19:54:00.551Z,4.40
2018-09-18T19:56:28.053Z,4.57
2018-09-18T19:58:55.706Z,5.17
2018-09-18T20:01:23.788Z,4.03
2018-09-18T20:03:51.230Z,5.03
2018-09-18T20:06:18.824Z,5.40
2018-09-18T20:08:46.228Z,4.53
2018-09-18T20:11:13.713Z,4.17
2018-09-18T20:13:41.225Z,4.77
2018-09-18T20:16:08.757Z,4.50
2018-09-18T20:18:37.142Z,5.43
2018-09-18T20:21:04.954Z,4.90
2018-09-18T20:23:32.483Z,4.90
2018-09-18T20:25:59.955Z,4.40
2018-09-18T20:28:27.513Z,4.73
2018-09-18T20:30:55.107Z,4.87
2018-09-18T20:33:22.640Z,3.80
2018-09-18T20:35:50.137Z,4.20
2018-09-18T20:38:17.647Z,4.23
2018-09-18T20:40:45.067Z,4.53
2018-09-18T20:43:12.654Z,4.20
2018-09-18T20:45:40.135Z,4.10
2018-09-18T20:48:07.669Z,4.33
2018-09-18T20:50:35.292Z,4.50
2018-09-18T20:53:02.755Z,4.30
2018-09-18T20:55:30.262Z,3.80
2018-09-18T20:57:57.778Z,3.47
2018-09-18T21:00:25.272Z,3.97
2018-09-18T21:02:52.704Z,4.40
2018-09-18T21:05:20.202Z,4.20
2018-09-18T21:07:47.668Z,4.50
2018-09-18T21:10:16.165Z,4.10
2018-09-18T21:12:43.633Z,4.47
2018-09-18T21:15:11.115Z,4.10
2018-09-18T21:17:38.677Z,4.70
2018-09-18T21:20:06.186Z,5.90
2018-09-18T21:22:33.642Z,5.00
2018-09-18T21:26:06.718Z,5.57
2018-09-18T21:28:34.222Z,7.90
2018-09-18T21:31:01.867Z,9.70
2018-09-18T21:33:29.788Z,11.20
2018-09-18T21:35:57.370Z,13.10
2018-09-18T21:38:24.978Z,14.23
2018-09-18T21:40:52.572Z,14.50
2018-09-18T21:43:20.344Z,15.80
2018-09-18T21:45:48.146Z,16.67
2018-09-18T21:48:15.677Z,16.53
2018-09-18T21:50:43.247Z,16.80
2018-09-18T21:53:12.427Z,17.20
2018-09-18T21:55:40.153Z,19.50
2018-09-18T21:58:07.812Z,19.40
2018-09-18T22:00:36.435Z,20.83
2018-09-18T22:03:04.163Z,23.27
2018-09-18T22:05:31.654Z,24.50
2018-09-18T22:08:00.259Z,26.73
2018-09-18T22:10:28.050Z,25.87
2018-09-18T22:12:55.977Z,24.70
2018-09-18T22:15:23.571Z,28.30
2018-09-18T22:17:51.079Z,28.03
2018-09-18T22:20:18.983Z,29.00
2018-09-18T22:22:46.779Z,28.43
2018-09-18T22:25:14.386Z,29.87
2018-09-18T22:27:41.954Z,28.53
2018-09-18T22:30:09.417Z,29.70
2018-09-18T22:32:37.024Z,29.70
2018-09-18T22:35:04.552Z,30.87
2018-09-18T22:37:32.093Z,30.07
2018-09-18T22:39:59.650Z,32.20
2018-09-18T22:42:29.176Z,30.23
2018-09-18T22:44:56.788Z,32.30
2018-09-18T22:47:25.409Z,29.33
2018-09-18T22:49:53.078Z,31.47
2018-09-18T22:52:20.986Z,30.33
2018-09-18T22:54:48.429Z,31.40
2018-09-18T22:57:16.015Z,30.67
2018-09-18T22:59:43.496Z,28.17
2018-09-18T23:02:11.071Z,30.00
2018-09-18T23:04:38.743Z,29.63
2018-09-18T23:07:06.292Z,30.20
2018-09-18T23:09:33.821Z,28.80
2018-09-18T23:12:01.371Z,29.50
2018-09-18T23:14:29.480Z,30.13
2018-09-18T23:16:58.011Z,29.33
2018-09-18T23:19:25.910Z,29.97
2018-09-18T23:21:53.407Z,31.50
2018-09-18T23:24:25.290Z,30.10
2018-09-18T23:26:54.791Z,28.13
2018-09-18T23:29:23.377Z,29.93
2018-09-18T23:31:50.899Z,29.00
2018-09-18T23:34:19.388Z,30.87
2018-09-18T23:36:47.026Z,29.77
2018-09-18T23:39:14.560Z,28.97
2018-09-18T23:41:42.161Z,28.50
2018-09-18T23:44:09.797Z,29.00
2018-09-18T23:46:37.365Z,29.90
2018-09-18T23:49:04.876Z,29.90
2018-09-18T23:51:32.408Z,29.03
2018-09-18T23:54:01.183Z,28.80
2018-09-18T23:56:29.638Z,31.33
2018-09-18T23:58:59.499Z,28.27
